createdAt,value
2018-02-04T00:01:11.056Z,17.73
2018-02-04T00:03:38.607Z,17.23
2018-02-04T00:06:06.073Z,16.45
2018-02-04T00:08:33.528Z,16.33
2018-02-04T00:11:01.009Z,20.67
2018-02-04T00:13:28.490Z,18.07
2018-02-04T00:15:55.931Z,20.17
2018-02-04T00:18:23.393Z,15.93
2018-02-04T00:20:50.970Z,16.63
2018-02-04T00:23:18.428Z,16.90
2018-02-04T00:25:45.930Z,17.80
2018-02-04T00:28:13.467Z,17.23
2018-02-04T00:30:40.996Z,20.23
2018-02-04T00:33:08.488Z,18.70
2018-02-04T00:35:35.939Z,20.63
2018-02-04T00:38:03.442Z,18.23
2018-02-04T00:40:30.914Z,18.87
2018-02-04T00:42:58.371Z,21.53
2018-02-04T00:45:25.833Z,19.53
2018-02-04T00:47:53.280Z,18.30
2018-02-04T00:50:20.999Z,20.43
2018-02-04T00:52:48.479Z,21.27
2018-02-04T00:55:15.963Z,22.52
2018-02-04T00:57:43.413Z,18.60
2018-02-04T01:00:11.078Z,19.93
2018-02-04T01:02:38.672Z,19.67
2018-02-04T01:05:06.225Z,18.77
2018-02-04T01:07:33.890Z,21.43
2018-02-04T01:10:01.352Z,20.75
2018-02-04T01:12:29.024Z,20.90
2018-02-04T01:14:56.573Z,17.93
2018-02-04T01:17:24.057Z,19.47
2018-02-04T01:19:51.606Z,20.03
2018-02-04T01:22:19.126Z,21.63
2018-02-04T01:24:46.595Z,19.77
2018-02-04T01:27:14.165Z,19.63
2018-02-04T01:29:41.615Z,18.70
2018-02-04T01:32:09.096Z,19.80
2018-02-04T01:34:36.592Z,19.70
2018-02-04T01:37:04.119Z,22.93
2018-02-04T01:39:31.706Z,20.00
2018-02-04T01:41:59.181Z,19.53
2018-02-04T01:44:27.720Z,18.80
2018-02-04T01:46:55.192Z,19.37
2018-02-04T01:49:22.912Z,19.50
2018-02-04T01:51:50.358Z,19.37
2018-02-04T01:54:18.644Z,22.47
2018-02-04T01:56:46.100Z,18.40
2018-02-04T01:59:13.557Z,18.95
2018-02-04T02:01:41.013Z,19.27
2018-02-04T02:04:08.901Z,18.10
2018-02-04T02:06:36.431Z,20.00
2018-02-04T02:09:03.867Z,18.47
2018-02-04T02:11:31.327Z,19.67
2018-02-04T02:13:58.793Z,20.10
2018-02-04T02:16:26.257Z,19.07
2018-02-04T02:18:53.727Z,18.90
2018-02-04T02:21:21.202Z,19.90
2018-02-04T02:23:48.752Z,20.60
2018-02-04T02:26:16.276Z,18.47
2018-02-04T02:28:43.909Z,19.95
2018-02-04T02:31:11.403Z,19.73
2018-02-04T02:33:38.940Z,19.08
2018-02-04T02:36:06.507Z,18.90
2018-02-04T02:38:34.000Z,17.73
2018-02-04T02:41:01.622Z,16.63
2018-02-04T02:43:29.096Z,20.43
2018-02-04T02:45:56.636Z,20.20
2018-02-04T02:48:24.097Z,17.20
2018-02-04T02:50:51.582Z,17.13
2018-02-04T02:53:19.065Z,18.57
2018-02-04T02:55:46.528Z,17.43
2018-02-04T02:58:14.213Z,17.90
2018-02-04T03:00:41.790Z,22.10
2018-02-04T03:03:09.250Z,19.20
2018-02-04T03:05:36.704Z,18.50
2018-02-04T03:08:04.160Z,18.80
2018-02-04T03:10:31.785Z,17.43
2018-02-04T03:12:59.293Z,16.60
2018-02-04T03:15:26.743Z,19.80
2018-02-04T03:17:54.244Z,20.97
2018-02-04T03:20:21.702Z,18.67
2018-02-04T03:22:49.178Z,21.87
2018-02-04T03:25:16.627Z,18.87
2018-02-04T03:27:44.082Z,19.10
2018-02-04T03:30:11.559Z,19.95
2018-02-04T03:32:39.039Z,19.60
2018-02-04T03:35:06.497Z,19.30
2018-02-04T03:37:34.037Z,18.42
2018-02-04T03:40:01.498Z,20.87
2018-02-04T03:42:28.954Z,19.30
2018-02-04T03:44:56.425Z,20.30
2018-02-04T03:47:23.962Z,21.10
2018-02-04T03:49:51.980Z,21.03
2018-02-04T03:52:19.517Z,20.43
2018-02-04T03:54:46.981Z,24.80
2018-02-04T03:57:14.428Z,21.70
2018-02-04T03:59:41.889Z,24.50
2018-02-04T04:02:09.337Z,21.27
2018-02-04T04:04:36.839Z,21.67
2018-02-04T04:07:04.297Z,22.80
2018-02-04T04:09:31.946Z,20.50
2018-02-04T04:11:59.397Z,24.30
2018-02-04T04:14:26.874Z,20.87
2018-02-04T04:16:54.336Z,21.17
2018-02-04T04:19:21.991Z,23.90
2018-02-04T04:21:49.454Z,25.67
2018-02-04T04:24:16.910Z,22.03
2018-02-04T04:26:44.369Z,21.50
2018-02-04T04:29:12.313Z,22.58
2018-02-04T04:31:39.774Z,23.38
2018-02-04T04:34:07.225Z,22.40
2018-02-04T04:36:34.691Z,21.33
2018-02-04T04:39:02.513Z,23.40
2018-02-04T04:41:29.976Z,21.10
2018-02-04T04:43:57.428Z,19.17
2018-02-04T04:46:24.914Z,23.97
2018-02-04T04:48:53.302Z,22.15
2018-02-04T04:51:20.776Z,22.67
2018-02-04T04:53:48.217Z,25.55
2018-02-04T04:56:15.685Z,28.33
2018-02-04T04:58:43.209Z,24.30
2018-02-04T05:01:11.025Z,22.03
2018-02-04T05:03:38.545Z,24.02
2018-02-04T05:06:06.011Z,22.40
2018-02-04T05:08:33.460Z,23.07
2018-02-04T05:11:01.610Z,20.73
2018-02-04T05:13:29.048Z,21.10
2018-02-04T05:15:56.497Z,23.40
2018-02-04T05:18:24.019Z,23.03
2018-02-04T05:20:51.648Z,25.97
2018-02-04T05:23:19.348Z,23.65
2018-02-04T05:25:46.844Z,21.87
2018-02-04T05:28:14.448Z,24.60
2018-02-04T05:30:41.897Z,22.12
2018-02-04T05:33:09.344Z,23.03
2018-02-04T05:35:36.788Z,25.40
2018-02-04T05:38:04.334Z,22.67
2018-02-04T05:40:31.785Z,26.83
2018-02-04T05:42:59.276Z,24.03
2018-02-04T05:45:26.724Z,25.67
2018-02-04T05:47:54.640Z,24.50
2018-02-04T05:50:22.852Z,24.77
2018-02-04T05:52:50.709Z,26.30
2018-02-04T05:55:18.162Z,24.33
2018-02-04T05:57:45.838Z,22.65
2018-02-04T06:00:13.519Z,24.47
2018-02-04T06:02:40.980Z,24.45
2018-02-04T06:05:08.430Z,26.62
2018-02-04T06:07:35.901Z,24.30
2018-02-04T06:10:03.359Z,28.63
2018-02-04T06:12:31.812Z,22.58
2018-02-04T06:14:59.480Z,27.50
2018-02-04T06:17:26.934Z,26.60
2018-02-04T06:19:54.401Z,24.23
2018-02-04T06:22:21.868Z,22.17
2018-02-04T06:24:49.335Z,24.48
2018-02-04T06:27:16.780Z,26.10
2018-02-04T06:29:44.247Z,23.50
2018-02-04T06:32:11.700Z,28.13
2018-02-04T06:34:39.159Z,25.70
2018-02-04T06:37:06.600Z,24.75
2018-02-04T06:39:34.068Z,26.77
2018-02-04T06:42:01.788Z,28.38
2018-02-04T06:44:29.245Z,24.80
2018-02-04T06:46:56.701Z,30.10
2018-02-04T06:49:24.162Z,25.97
2018-02-04T06:51:51.631Z,27.27
2018-02-04T06:54:19.204Z,25.77
2018-02-04T06:56:46.676Z,28.40
2018-02-04T06:59:14.134Z,24.70
2018-02-04T07:01:41.596Z,27.15
2018-02-04T07:04:09.089Z,28.27
2018-02-04T07:06:36.556Z,28.07
2018-02-04T07:09:04.005Z,29.77
2018-02-04T07:11:31.941Z,26.33
2018-02-04T07:13:59.380Z,25.43
2018-02-04T07:16:26.845Z,28.27
2018-02-04T07:18:54.299Z,28.10
2018-02-04T07:21:21.777Z,26.53
2018-02-04T07:23:49.224Z,26.67
2018-02-04T07:26:16.696Z,26.00
2018-02-04T07:28:44.152Z,27.17
2018-02-04T07:31:11.640Z,27.23
2018-02-04T07:33:39.089Z,25.03
2018-02-04T07:36:06.538Z,25.55
2018-02-04T07:38:33.996Z,27.70
2018-02-04T07:41:03.192Z,28.20
2018-02-04T07:43:30.657Z,26.60
2018-02-04T07:45:58.126Z,25.17
2018-02-04T07:48:25.584Z,25.60
2018-02-04T07:50:53.198Z,28.00
2018-02-04T07:53:20.660Z,22.00
2018-02-04T07:55:48.103Z,21.33
2018-02-04T07:58:15.565Z,20.10
2018-02-04T08:00:43.005Z,19.20
2018-02-04T08:03:10.476Z,19.60
2018-02-04T08:05:37.920Z,18.73
2018-02-04T08:08:05.388Z,19.97
2018-02-04T08:10:32.859Z,19.17
2018-02-04T08:13:00.328Z,17.40
2018-02-04T08:15:27.810Z,15.23
2018-02-04T08:17:55.284Z,13.40
2018-02-04T08:20:22.721Z,13.27
2018-02-04T08:22:50.177Z,12.30
2018-02-04T08:25:17.659Z,14.93
2018-02-04T08:27:45.186Z,11.65
2018-02-04T08:30:12.644Z,11.40
2018-02-04T08:32:40.743Z,12.50
2018-02-04T08:35:08.233Z,11.43
2018-02-04T08:37:35.764Z,13.47
2018-02-04T08:40:03.237Z,11.38
2018-02-04T08:42:30.690Z,12.27
2018-02-04T08:44:58.148Z,14.40
2018-02-04T08:47:25.596Z,14.30
2018-02-04T08:49:53.064Z,13.77
2018-02-04T08:52:20.503Z,13.60
2018-02-04T08:54:47.979Z,13.07
2018-02-04T08:57:15.444Z,13.25
2018-02-04T08:59:42.889Z,15.73
2018-02-04T09:02:10.350Z,13.87
2018-02-04T09:04:37.793Z,12.10
2018-02-04T09:07:05.257Z,14.05
2018-02-04T09:09:32.704Z,13.90
2018-02-04T09:12:00.196Z,14.23
2018-02-04T09:14:27.653Z,14.93
2018-02-04T09:16:55.121Z,15.47
2018-02-04T09:19:22.584Z,16.30
2018-02-04T09:21:50.059Z,16.90
2018-02-04T09:24:17.557Z,17.80
2018-02-04T09:26:45.032Z,17.70
2018-02-04T09:29:12.493Z,15.90
2018-02-04T09:31:39.981Z,14.90
2018-02-04T09:34:07.568Z,16.35
2018-02-04T09:36:35.056Z,17.53
2018-02-04T09:39:02.544Z,13.50
2018-02-04T09:41:30.022Z,12.43
2018-02-04T09:43:57.473Z,11.48
2018-02-04T09:46:24.928Z,13.33
2018-02-04T09:48:52.492Z,13.70
2018-02-04T09:51:20.045Z,14.30
2018-02-04T09:53:47.497Z,11.87
2018-02-04T09:56:14.954Z,12.90
2018-02-04T09:58:42.450Z,13.03
2018-02-04T10:01:09.904Z,12.33
2018-02-04T10:03:37.361Z,13.95
2018-02-04T10:06:04.813Z,16.23
2018-02-04T10:08:32.735Z,13.75
2018-02-04T10:11:00.248Z,13.70
2018-02-04T10:13:27.700Z,15.57
2018-02-04T10:15:55.174Z,16.00
2018-02-04T10:18:22.644Z,13.83
2018-02-04T10:20:50.108Z,14.82
2018-02-04T10:23:17.589Z,14.52
2018-02-04T10:25:45.048Z,15.10
2018-02-04T10:28:12.519Z,15.30
2018-02-04T10:30:40.024Z,15.20
2018-02-04T10:33:07.567Z,15.13
2018-02-04T10:35:35.187Z,24.30
2018-02-04T10:38:02.801Z,14.25
2018-02-04T10:40:30.285Z,14.73
2018-02-04T10:42:57.913Z,16.07
2018-02-04T10:51:28.392Z,13.60
2018-02-04T10:53:55.885Z,17.97
2018-02-04T10:56:23.370Z,15.17
2018-02-04T10:58:50.845Z,18.33
2018-02-04T11:01:18.281Z,14.73
2018-02-04T11:03:45.707Z,13.48
2018-02-04T11:06:18.621Z,15.80
2018-02-04T11:08:46.221Z,15.20
2018-02-04T11:11:13.692Z,14.77
2018-02-04T11:13:41.124Z,14.33
2018-02-04T11:16:08.771Z,14.18
2018-02-04T11:18:36.242Z,12.83
2018-02-04T11:21:03.653Z,14.77
2018-02-04T11:23:31.192Z,13.17
2018-02-04T11:25:58.664Z,16.00
2018-02-04T11:28:26.116Z,16.33
2018-02-04T11:30:53.584Z,17.13
2018-02-04T11:33:21.136Z,15.93
2018-02-04T11:35:48.755Z,17.50
2018-02-04T11:38:16.176Z,16.93
2018-02-04T11:40:43.629Z,15.47
2018-02-04T11:43:11.058Z,16.63
2018-02-04T11:45:38.501Z,14.73
2018-02-04T11:48:05.972Z,13.53
2018-02-04T11:50:34.340Z,13.52
2018-02-04T11:53:01.788Z,15.07
2018-02-04T11:55:30.506Z,14.03
2018-02-04T11:57:57.956Z,13.30
2018-02-04T12:00:25.386Z,23.13
2018-02-04T12:02:52.847Z,16.87
2018-02-04T12:05:20.319Z,13.40
2018-02-04T12:07:47.780Z,15.07
2018-02-04T12:10:15.238Z,14.00
2018-02-04T12:12:42.744Z,13.43
2018-02-04T12:15:10.276Z,13.30
2018-02-04T12:17:37.758Z,11.47
2018-02-04T12:20:05.227Z,11.53
2018-02-04T12:22:33.177Z,12.82
2018-02-04T12:25:00.632Z,13.00
2018-02-04T12:27:28.084Z,11.90
2018-02-04T12:29:55.516Z,11.80
2018-02-04T12:32:22.972Z,11.70
2018-02-04T12:34:50.478Z,11.53
2018-02-04T12:37:17.929Z,11.80
2018-02-04T12:39:45.390Z,11.68
2018-02-04T12:42:12.852Z,11.87
2018-02-04T12:44:40.273Z,11.57
2018-02-04T12:47:07.691Z,11.82
2018-02-04T12:49:35.236Z,12.60
2018-02-04T12:52:03.388Z,12.23
2018-02-04T12:54:30.870Z,12.13
2018-02-04T12:56:58.634Z,10.87
2018-02-04T12:59:26.117Z,11.20
2018-02-04T13:01:53.566Z,12.63
2018-02-04T13:04:21.005Z,10.27
2018-02-04T13:06:48.429Z,11.45
2018-02-04T13:09:15.884Z,12.90
2018-02-04T13:11:43.326Z,11.65
2018-02-04T13:14:10.784Z,11.65
2018-02-04T13:16:39.361Z,12.27
2018-02-04T13:19:06.823Z,10.90
2018-02-04T13:21:34.246Z,9.13
2018-02-04T13:24:01.739Z,9.17
2018-02-04T13:26:29.233Z,8.88
2018-02-04T13:28:56.742Z,9.53
2018-02-04T13:31:24.190Z,8.57
2018-02-04T13:33:51.616Z,8.40
2018-02-04T13:36:19.057Z,8.80
2018-02-04T13:38:46.477Z,9.43
2018-02-04T13:41:13.922Z,9.52
2018-02-04T13:43:41.364Z,9.97
2018-02-04T13:46:08.832Z,9.38
2018-02-04T13:48:36.274Z,8.97
2018-02-04T13:51:03.789Z,11.13
2018-02-04T13:53:31.168Z,9.93
2018-02-04T13:55:58.673Z,8.87
2018-02-04T13:58:26.095Z,9.00
2018-02-04T14:00:53.531Z,8.97
2018-02-04T14:03:21.214Z,7.35
2018-02-04T14:05:48.664Z,8.80
2018-02-04T14:08:16.238Z,9.47
2018-02-04T14:10:43.709Z,10.80
2018-02-04T14:13:11.165Z,10.17
2018-02-04T14:15:38.727Z,12.82
2018-02-04T14:18:06.202Z,9.70
2018-02-04T14:20:33.660Z,10.97
2018-02-04T14:23:01.134Z,10.43
2018-02-04T14:25:28.761Z,12.48
2018-02-04T14:27:56.216Z,12.73
2018-02-04T14:30:23.652Z,12.43
2018-02-04T14:32:51.092Z,11.40
2018-02-04T14:35:18.516Z,10.98
2018-02-04T14:37:45.963Z,11.13
2018-02-04T14:40:13.433Z,10.43
2018-02-04T14:42:40.873Z,12.40
2018-02-04T14:45:08.306Z,10.75
2018-02-04T14:47:35.762Z,12.70
2018-02-04T14:50:03.770Z,13.00
2018-02-04T14:52:31.221Z,10.63
2018-02-04T14:54:58.652Z,11.43
2018-02-04T14:57:26.096Z,13.20
2018-02-04T14:59:54.406Z,11.90
2018-02-04T15:02:21.896Z,12.63
2018-02-04T15:04:51.999Z,11.77
2018-02-04T15:07:19.484Z,12.40
2018-02-04T15:09:48.037Z,11.60
2018-02-04T15:12:15.640Z,11.80
2018-02-04T15:14:43.250Z,12.80
2018-02-04T15:17:10.683Z,11.80
2018-02-04T15:19:39.157Z,11.93
2018-02-04T15:22:06.618Z,13.13
2018-02-04T15:24:34.092Z,13.90
2018-02-04T15:27:01.585Z,11.87
2018-02-04T15:29:29.141Z,12.20
2018-02-04T15:31:56.585Z,12.60
2018-02-04T15:34:27.262Z,11.60
2018-02-04T15:36:54.680Z,12.80
2018-02-04T15:39:22.125Z,22.30
2018-02-04T15:41:49.584Z,15.87
2018-02-04T15:44:17.105Z,12.30
2018-02-04T15:46:44.540Z,12.67
2018-02-04T15:49:13.926Z,12.13
2018-02-04T15:51:41.363Z,11.50
2018-02-04T15:54:08.789Z,12.32
2018-02-04T15:56:36.232Z,15.30
2018-02-04T15:59:04.012Z,12.70
2018-02-04T16:01:31.445Z,12.90
2018-02-04T16:03:58.875Z,12.33
2018-02-04T16:06:26.330Z,12.87
2018-02-04T16:08:53.869Z,11.80
2018-02-04T16:11:21.388Z,12.47
2018-02-04T16:13:48.849Z,13.97
2018-02-04T16:16:16.296Z,13.27
2018-02-04T16:18:43.896Z,13.10
2018-02-04T16:21:11.349Z,13.67
2018-02-04T16:23:38.774Z,11.82
2018-02-04T16:26:06.208Z,13.67
2018-02-04T16:28:34.184Z,12.15
2018-02-04T16:31:01.631Z,14.53
2018-02-04T16:33:31.173Z,14.93
2018-02-04T16:35:58.860Z,13.77
2018-02-04T16:38:26.309Z,14.10
2018-02-04T16:40:53.741Z,14.10
2018-02-04T16:43:21.224Z,14.77
2018-02-04T16:45:48.708Z,14.77
2018-02-04T16:48:16.177Z,14.87
2018-02-04T16:50:43.617Z,13.77
2018-02-04T16:53:13.645Z,12.97
2018-02-04T16:55:41.254Z,12.93
2018-02-04T16:58:08.700Z,13.82
2018-02-04T17:00:36.172Z,14.02
2018-02-04T17:03:04.281Z,15.23
2018-02-04T17:05:31.869Z,28.57
2018-02-04T17:07:59.320Z,14.67
2018-02-04T17:10:28.560Z,16.50
2018-02-04T17:12:56.106Z,17.70
2018-02-04T17:15:23.573Z,12.70
2018-02-04T17:17:50.997Z,14.07
2018-02-04T17:20:18.615Z,14.00
2018-02-04T17:22:46.107Z,12.80
2018-02-04T17:25:13.576Z,13.13
2018-02-04T17:27:41.016Z,13.03
2018-02-04T17:30:08.600Z,14.30
2018-02-04T17:32:36.167Z,13.17
2018-02-04T17:35:09.612Z,13.00
2018-02-04T17:37:37.969Z,14.80
2018-02-04T17:40:05.853Z,14.30
2018-02-04T17:42:33.284Z,12.18
2018-02-04T17:45:00.786Z,11.37
2018-02-04T17:47:28.401Z,12.37
2018-02-04T17:49:56.485Z,12.23
2018-02-04T17:52:23.929Z,12.03
2018-02-04T17:54:51.365Z,11.57
2018-02-04T17:57:18.842Z,12.20
2018-02-04T17:59:46.278Z,13.03
2018-02-04T18:02:13.744Z,12.37
2018-02-04T18:04:41.230Z,11.63
2018-02-04T18:07:08.699Z,11.63
2018-02-04T18:09:36.131Z,12.70
2018-02-04T18:12:04.824Z,11.12
2018-02-04T18:14:32.271Z,11.97
2018-02-04T18:16:59.758Z,12.37
2018-02-04T18:19:32.803Z,12.10
2018-02-04T18:22:05.107Z,11.97
2018-02-04T18:24:32.967Z,12.40
2018-02-04T18:27:00.636Z,11.60
2018-02-04T18:29:28.179Z,13.20
2018-02-04T18:31:55.627Z,12.55
2018-02-04T18:34:23.124Z,11.57
2018-02-04T18:36:50.589Z,11.35
2018-02-04T18:39:18.093Z,11.32
2018-02-04T18:41:45.555Z,11.88
2018-02-04T18:44:12.988Z,11.70
2018-02-04T18:46:40.487Z,12.40
2018-02-04T18:49:08.088Z,11.93
2018-02-04T18:51:35.842Z,11.02
2018-02-04T18:54:03.262Z,11.73
2018-02-04T18:56:30.743Z,10.67
2018-02-04T18:58:58.160Z,10.40
2018-02-04T19:01:25.595Z,10.00
2018-02-04T19:03:53.080Z,9.83
2018-02-04T19:06:20.515Z,12.30
2018-02-04T19:08:47.967Z,10.32
2018-02-04T19:11:15.379Z,10.43
2018-02-04T19:13:42.960Z,9.85
2018-02-04T19:16:10.380Z,9.53
2018-02-04T19:18:37.873Z,9.43
2018-02-04T19:21:05.357Z,10.23
2018-02-04T19:23:32.855Z,9.20
2018-02-04T19:26:00.284Z,9.53
2018-02-04T19:28:27.728Z,10.70
2018-02-04T19:30:55.170Z,9.17
2018-02-04T19:33:22.902Z,10.20
2018-02-04T19:35:50.332Z,11.00
2018-02-04T19:38:17.813Z,10.85
2018-02-04T19:40:46.224Z,9.50
2018-02-04T19:43:13.757Z,10.87
2018-02-04T19:45:41.240Z,9.43
2018-02-04T19:48:08.666Z,9.10
2018-02-04T19:50:36.983Z,9.48
2018-02-04T19:53:04.914Z,8.60
2018-02-04T19:55:32.348Z,9.13
2018-02-04T19:57:59.765Z,9.83
2018-02-04T20:00:27.312Z,10.10
2018-02-04T20:02:54.745Z,9.45
2018-02-04T20:05:22.348Z,9.50
2018-02-04T20:07:49.858Z,9.63
2018-02-04T20:10:17.350Z,10.43
2018-02-04T20:12:44.810Z,9.73
2018-02-04T20:15:12.264Z,12.50
2018-02-04T20:17:39.757Z,10.93
2018-02-04T20:20:07.244Z,8.80
2018-02-04T20:22:35.167Z,10.33
2018-02-04T20:25:02.617Z,10.00
2018-02-04T20:27:30.221Z,10.20
2018-02-04T20:29:57.836Z,11.00
2018-02-04T20:32:37.238Z,10.47
2018-02-04T20:35:05.262Z,11.38
2018-02-04T20:37:32.735Z,11.77
2018-02-04T20:40:00.234Z,12.07
2018-02-04T20:42:27.840Z,11.80
2018-02-04T20:44:55.288Z,12.03
2018-02-04T20:47:22.845Z,12.63
2018-02-04T20:49:50.300Z,11.37
2018-02-04T20:52:17.768Z,12.30
2018-02-04T20:54:45.361Z,13.67
2018-02-04T20:57:12.876Z,14.80
2018-02-04T20:59:40.349Z,12.17
2018-02-04T21:02:07.823Z,17.53
2018-02-04T21:04:35.464Z,12.90
2018-02-04T21:07:03.001Z,13.50
2018-02-04T21:09:30.435Z,14.13
2018-02-04T21:11:57.916Z,14.00
2018-02-04T21:14:25.372Z,13.63
2018-02-04T21:16:52.932Z,12.45
2018-02-04T21:19:20.370Z,13.70
2018-02-04T21:21:47.878Z,14.70
2018-02-04T21:24:15.313Z,29.87
2018-02-04T21:26:42.762Z,13.53
2018-02-04T21:29:10.199Z,12.57
2018-02-04T21:31:37.948Z,14.18
2018-02-04T21:34:05.391Z,14.83
2018-02-04T21:36:32.825Z,12.47
2018-02-04T21:39:00.256Z,13.23
2018-02-04T21:41:27.719Z,12.60
2018-02-04T21:43:55.164Z,13.00
2018-02-04T21:46:22.601Z,11.50
2018-02-04T21:48:50.054Z,12.57
2018-02-04T21:51:17.512Z,12.07
2018-02-04T21:53:45.021Z,12.83
2018-02-04T21:56:12.459Z,13.23
2018-02-04T21:58:39.921Z,12.37
2018-02-04T22:01:07.433Z,11.30
2018-02-04T22:03:35.398Z,13.70
2018-02-04T22:06:02.951Z,12.27
2018-02-04T22:08:30.432Z,12.53
2018-02-04T22:10:57.950Z,11.90
2018-02-04T22:13:25.373Z,11.15
2018-02-04T22:15:52.808Z,12.70
2018-02-04T22:18:20.257Z,12.77
2018-02-04T22:20:47.743Z,11.38
2018-02-04T22:23:15.220Z,12.60
2018-02-04T22:25:42.664Z,12.02
2018-02-04T22:28:11.224Z,12.15
2018-02-04T22:30:38.758Z,11.33
2018-02-04T22:33:06.242Z,13.45
2018-02-04T22:35:33.733Z,13.00
2018-02-04T22:38:01.185Z,11.97
2018-02-04T22:40:28.633Z,13.50
2018-02-04T22:42:56.053Z,11.93
2018-02-04T22:45:23.661Z,12.03
2018-02-04T22:47:51.094Z,11.83
2018-02-04T22:50:18.542Z,13.80
2018-02-04T22:52:45.977Z,14.55
2018-02-04T22:55:13.440Z,13.70
2018-02-04T22:57:40.949Z,14.30
2018-02-04T23:00:08.371Z,12.90
2018-02-04T23:02:35.834Z,11.97
2018-02-04T23:05:03.268Z,12.87
2018-02-04T23:07:30.719Z,12.83
2018-02-04T23:09:58.150Z,13.00
2018-02-04T23:12:25.596Z,12.43
2018-02-04T23:14:53.024Z,11.80
2018-02-04T23:17:20.480Z,12.57
2018-02-04T23:19:47.956Z,12.32
2018-02-04T23:22:15.379Z,12.20
2018-02-04T23:24:42.830Z,12.37
2018-02-04T23:27:10.281Z,11.90
2018-02-04T23:29:37.718Z,12.45
2018-02-04T23:32:05.885Z,11.48
2018-02-04T23:34:33.316Z,12.07
2018-02-04T23:37:01.118Z,11.95
2018-02-04T23:39:28.748Z,11.67
2018-02-04T23:41:56.216Z,12.60
2018-02-04T23:44:23.641Z,12.20
2018-02-04T23:46:51.086Z,12.70
2018-02-04T23:49:18.506Z,13.73
2018-02-04T23:51:46.245Z,12.00
2018-02-04T23:54:13.696Z,12.88
2018-02-04T23:56:42.262Z,11.70
2018-02-04T23:59:09.795Z,13.37
